createdAt,value
2022-12-03T00:02:00.378Z,98378.41
2022-12-03T00:04:26.958Z,98384.38
2022-12-03T00:06:53.737Z,98376.00
2022-12-03T00:09:20.835Z,98373.41
2022-12-03T00:11:47.376Z,98385.66
2022-12-03T00:14:14.194Z,98382.47
2022-12-03T00:16:40.801Z,98390.47
2022-12-03T00:19:07.828Z,98384.13
2022-12-03T00:21:34.716Z,98381.38
2022-12-03T00:24:01.470Z,98377.50
2022-12-03T00:26:28.041Z,98380.25
2022-12-03T00:28:55.223Z,98378.22
2022-12-03T00:31:23.428Z,98379.50
2022-12-03T00:33:51.344Z,98378.66
2022-12-03T00:36:19.132Z,98378.88
2022-12-03T00:38:45.881Z,98380.03
2022-12-03T00:41:13.085Z,98388.63
2022-12-03T00:43:39.606Z,98381.41
2022-12-03T00:46:06.312Z,98389.81
2022-12-03T00:48:32.918Z,98378.44
2022-12-03T00:50:59.549Z,98390.53
2022-12-03T00:53:26.062Z,98391.81
2022-12-03T00:55:52.676Z,98384.28
2022-12-03T00:58:19.314Z,98389.16
2022-12-03T01:00:45.831Z,98398.50
2022-12-03T01:03:12.447Z,98386.50
2022-12-03T01:05:39.316Z,98388.53
2022-12-03T01:08:05.999Z,98390.53
2022-12-03T01:10:32.530Z,98398.50
2022-12-03T01:12:59.068Z,98396.16
2022-12-03T01:15:25.590Z,98395.09
2022-12-03T01:17:54.164Z,98401.16
2022-12-03T01:20:20.762Z,98400.00
2022-12-03T01:22:47.290Z,98398.72
2022-12-03T01:25:13.890Z,98397.44
2022-12-03T01:27:40.468Z,98398.28
2022-12-03T01:30:07.810Z,98395.66
2022-12-03T01:32:34.327Z,98392.47
2022-12-03T01:35:00.974Z,98395.22
2022-12-03T01:37:27.644Z,98394.16
2022-12-03T01:39:54.762Z,98390.75
2022-12-03T01:42:28.000Z,98398.59
2022-12-03T01:44:56.738Z,98389.69
2022-12-03T01:47:34.132Z,98393.59
2022-12-03T01:50:15.642Z,98395.31
2022-12-03T01:52:42.543Z,98389.28
2022-12-03T01:55:16.446Z,98395.31
2022-12-03T01:57:47.956Z,98398.16
2022-12-03T02:00:17.018Z,98404.44
2022-12-03T02:02:43.692Z,98395.00
2022-12-03T02:05:21.563Z,98397.34
2022-12-03T02:07:48.412Z,98399.47
2022-12-03T02:10:16.386Z,98401.38
2022-12-03T02:12:48.562Z,98400.41
2022-12-03T02:15:15.238Z,98401.59
2022-12-03T02:17:42.095Z,98396.28
2022-12-03T02:20:10.330Z,98399.44
2022-12-03T02:22:40.244Z,98401.56
2022-12-03T02:25:15.916Z,98390.00
2022-12-03T02:27:42.903Z,98390.56
2022-12-03T02:30:10.149Z,98388.44
2022-12-03T02:32:37.504Z,98390.09
2022-12-03T02:35:04.726Z,98391.28
2022-12-03T02:37:35.738Z,98383.31
2022-12-03T02:40:09.754Z,98379.28
2022-12-03T02:42:37.178Z,98388.75
2022-12-03T02:45:14.167Z,98390.97
2022-12-03T02:47:45.501Z,98395.41
2022-12-03T02:50:15.586Z,98395.97
2022-12-03T02:52:44.005Z,98396.28
2022-12-03T02:55:11.018Z,98393.28
2022-12-03T02:57:38.411Z,98393.72
2022-12-03T03:00:07.880Z,98400.53
2022-12-03T03:02:36.557Z,98396.28
2022-12-03T03:05:04.270Z,98395.88
2022-12-03T03:07:30.935Z,98392.88
2022-12-03T03:09:58.463Z,98396.28
2022-12-03T03:12:25.085Z,98393.63
2022-12-03T03:14:52.670Z,98394.16
2022-12-03T03:17:19.501Z,98392.53
2022-12-03T03:19:47.100Z,98397.13
2022-12-03T03:22:13.790Z,98392.34
2022-12-03T03:24:40.420Z,98390.34
2022-12-03T03:27:07.108Z,98390.13
2022-12-03T03:29:33.976Z,98390.78
2022-12-03T03:32:01.753Z,98387.16
2022-12-03T03:34:29.754Z,98388.84
2022-12-03T03:36:56.366Z,98384.47
2022-12-03T03:39:22.916Z,98382.91
2022-12-03T03:41:49.494Z,98389.69
2022-12-03T03:44:16.083Z,98388.19
2022-12-03T03:46:42.973Z,98387.56
2022-12-03T03:49:10.464Z,98377.16
2022-12-03T03:51:37.537Z,98388.38
2022-12-03T03:54:05.548Z,98384.56
2022-12-03T03:56:32.921Z,98392.22
2022-12-03T03:58:59.738Z,98391.06
2022-12-03T04:01:27.168Z,98386.06
2022-12-03T04:03:55.143Z,98382.38
2022-12-03T04:06:21.726Z,98375.88
2022-12-03T04:08:48.272Z,98376.09
2022-12-03T04:11:33.477Z,98381.81
2022-12-03T04:13:59.972Z,98376.50
2022-12-03T04:16:26.616Z,98377.38
2022-12-03T04:18:53.221Z,98369.06
2022-12-03T04:21:40.463Z,98364.25
2022-12-03T04:24:08.705Z,98370.09
2022-12-03T04:26:53.930Z,98366.69
2022-12-03T04:29:20.682Z,98371.16
2022-12-03T04:32:05.877Z,98367.91
2022-12-03T04:34:51.502Z,98368.53
2022-12-03T04:37:18.362Z,98362.78
2022-12-03T04:39:44.963Z,98360.53
2022-12-03T04:42:11.619Z,98361.72
2022-12-03T04:44:38.200Z,98365.75
2022-12-03T04:47:13.333Z,98364.00
2022-12-03T04:49:42.315Z,98367.41
2022-12-03T04:52:10.126Z,98369.19
2022-12-03T04:54:37.237Z,98367.44
2022-12-03T04:57:05.001Z,98370.56
2022-12-03T04:59:32.013Z,98371.81
2022-12-03T05:01:59.164Z,98364.13
2022-12-03T05:04:26.778Z,98369.75
2022-12-03T05:06:53.299Z,98372.47
2022-12-03T05:09:19.859Z,98366.53
2022-12-03T05:11:46.383Z,98366.94
2022-12-03T05:14:12.915Z,98366.94
2022-12-03T05:16:39.835Z,98366.22
2022-12-03T05:19:07.890Z,98358.38
2022-12-03T05:21:34.710Z,98359.66
2022-12-03T05:24:01.455Z,98351.84
2022-12-03T05:26:28.224Z,98361.47
2022-12-03T05:28:54.975Z,98356.03
2022-12-03T05:31:21.642Z,98353.19
2022-12-03T05:33:48.236Z,98358.72
2022-12-03T05:36:15.156Z,98352.53
2022-12-03T05:38:41.652Z,98349.78
2022-12-03T05:41:28.133Z,98348.47
2022-12-03T05:43:54.708Z,98342.09
2022-12-03T05:46:21.312Z,98347.19
2022-12-03T05:48:47.944Z,98336.28
2022-12-03T05:51:14.752Z,98332.69
2022-12-03T05:53:41.380Z,98336.63
2022-12-03T05:56:08.031Z,98329.50
2022-12-03T05:58:34.740Z,98340.19
2022-12-03T06:01:01.299Z,98343.75
2022-12-03T06:03:28.169Z,98342.97
2022-12-03T06:05:55.051Z,98346.63
2022-12-03T06:08:21.784Z,98338.00
2022-12-03T06:10:48.327Z,98345.31
2022-12-03T06:13:15.135Z,98339.81
2022-12-03T06:15:44.036Z,98348.19
2022-12-03T06:18:11.235Z,98350.84
2022-12-03T06:20:37.841Z,98347.16
2022-12-03T06:23:06.239Z,98343.66
2022-12-03T06:25:33.408Z,98346.19
2022-12-03T06:27:59.980Z,98343.28
2022-12-03T06:30:26.479Z,98356.56
2022-12-03T06:32:53.088Z,98358.09
2022-12-03T06:35:19.673Z,98361.69
2022-12-03T06:37:48.824Z,98364.00
2022-12-03T06:40:16.726Z,98365.28
2022-12-03T06:42:43.592Z,98363.91
2022-12-03T06:45:10.439Z,98368.13
2022-12-03T06:47:37.134Z,98373.34
2022-12-03T06:50:05.398Z,98379.50
2022-12-03T06:52:31.811Z,98381.94
2022-12-03T06:54:58.354Z,98377.47
2022-12-03T06:57:24.932Z,98380.13
2022-12-03T06:59:51.730Z,98378.84
2022-12-03T07:02:18.666Z,98386.38
2022-12-03T07:04:46.533Z,98385.00
2022-12-03T07:07:13.579Z,98381.81
2022-12-03T07:09:40.556Z,98381.63
2022-12-03T07:12:07.532Z,98379.59
2022-12-03T07:14:34.098Z,98372.91
2022-12-03T07:17:00.600Z,98366.03
2022-12-03T07:19:32.290Z,98358.47
2022-12-03T07:21:59.223Z,98356.22
2022-12-03T07:24:25.795Z,98355.69
2022-12-03T07:26:52.404Z,98360.34
2022-12-03T07:29:19.015Z,98363.13
2022-12-03T07:31:45.808Z,98369.47
2022-12-03T07:34:12.455Z,98363.47
2022-12-03T07:36:39.479Z,98366.50
2022-12-03T07:39:06.009Z,98360.88
2022-12-03T07:41:32.578Z,98364.16
2022-12-03T07:43:59.205Z,98357.31
2022-12-03T07:46:25.825Z,98353.09
2022-12-03T07:48:52.484Z,98351.50
2022-12-03T07:51:19.082Z,98348.22
2022-12-03T07:53:45.687Z,98346.28
2022-12-03T07:56:12.348Z,98354.91
2022-12-03T07:58:38.942Z,98356.81
2022-12-03T08:01:05.773Z,98354.13
2022-12-03T08:03:32.403Z,98356.75
2022-12-03T08:05:59.006Z,98362.19
2022-12-03T08:08:25.630Z,98363.84
2022-12-03T08:10:52.267Z,98361.19
2022-12-03T08:13:19.232Z,98358.75
2022-12-03T08:15:46.078Z,98364.56
2022-12-03T08:18:22.052Z,98361.63
2022-12-03T08:20:51.702Z,98361.81
2022-12-03T08:23:19.227Z,98366.28
2022-12-03T08:25:46.445Z,98364.16
2022-12-03T08:28:21.883Z,98361.72
2022-12-03T08:31:02.018Z,98363.59
2022-12-03T08:33:30.987Z,98364.69
2022-12-03T08:35:57.494Z,98362.84
2022-12-03T08:38:25.238Z,98362.13
2022-12-03T08:40:52.810Z,98367.84
2022-12-03T08:43:32.670Z,98371.44
2022-12-03T08:45:59.530Z,98373.88
2022-12-03T08:48:44.026Z,98365.25
2022-12-03T08:51:26.684Z,98367.06
2022-12-03T08:54:03.519Z,98364.88
2022-12-03T08:56:31.171Z,98357.75
2022-12-03T08:58:59.563Z,98368.88
2022-12-03T09:01:43.806Z,98357.50
2022-12-03T09:04:41.497Z,98355.88
2022-12-03T09:07:08.339Z,98361.44
2022-12-03T09:09:35.016Z,98365.38
2022-12-03T09:12:02.322Z,98363.66
2022-12-03T09:14:28.966Z,98362.56
2022-12-03T09:16:56.416Z,98365.63
2022-12-03T09:19:29.996Z,98366.56
2022-12-03T09:21:56.882Z,98374.31
2022-12-03T09:24:23.555Z,98369.22
2022-12-03T09:26:50.164Z,98370.69
2022-12-03T09:29:17.226Z,98371.34
2022-12-03T09:31:44.285Z,98371.75
2022-12-03T09:34:11.206Z,98362.72
2022-12-03T09:36:37.842Z,98364.75
2022-12-03T09:39:04.689Z,98358.38
2022-12-03T09:41:31.443Z,98361.44
2022-12-03T09:44:05.895Z,98355.06
2022-12-03T09:46:36.544Z,98353.88
2022-12-03T09:49:04.658Z,98348.72
2022-12-03T09:51:36.241Z,98337.84
2022-12-03T09:54:05.812Z,98337.63
2022-12-03T09:56:42.055Z,98336.97
2022-12-03T09:59:14.424Z,98334.47
2022-12-03T10:01:41.609Z,98333.59
2022-12-03T10:04:11.846Z,98339.34
2022-12-03T10:06:45.857Z,98341.34
2022-12-03T10:09:17.251Z,98338.78
2022-12-03T10:11:44.156Z,98343.25
2022-12-03T10:14:12.462Z,98346.88
2022-12-03T10:16:40.556Z,98352.03
2022-12-03T10:19:18.789Z,98354.22
2022-12-03T10:21:48.688Z,98348.13
2022-12-03T10:24:19.865Z,98346.94
2022-12-03T10:26:47.740Z,98343.88
2022-12-03T10:29:34.265Z,98338.66
2022-12-03T10:32:06.098Z,98337.81
2022-12-03T10:34:34.985Z,98340.91
2022-12-03T10:37:21.105Z,98337.84
2022-12-03T10:40:11.005Z,98327.09
2022-12-03T10:42:39.599Z,98324.97
2022-12-03T10:45:22.560Z,98333.22
2022-12-03T10:48:13.642Z,98334.66
2022-12-03T10:50:54.641Z,98327.31
2022-12-03T10:53:28.849Z,98318.38
2022-12-03T10:55:59.398Z,98322.19
2022-12-03T10:58:28.832Z,98311.03
2022-12-03T11:00:57.763Z,98305.59
2022-12-03T11:03:25.462Z,98304.75
2022-12-03T11:05:52.849Z,98306.13
2022-12-03T11:08:22.649Z,98303.19
2022-12-03T11:11:24.043Z,98291.97
2022-12-03T11:13:52.855Z,98302.94
2022-12-03T11:16:41.363Z,98293.66
2022-12-03T11:19:43.916Z,98282.44
2022-12-03T11:22:10.638Z,98288.81
2022-12-03T11:24:40.809Z,98287.28
2022-12-03T11:27:16.734Z,98283.09
2022-12-03T11:29:47.969Z,98283.75
2022-12-03T11:32:39.578Z,98282.09
2022-12-03T11:35:13.862Z,98279.47
2022-12-03T11:37:40.516Z,98268.94
2022-12-03T11:40:28.527Z,98283.63
2022-12-03T11:42:55.125Z,98285.25
2022-12-03T11:45:28.969Z,98283.31
2022-12-03T11:47:58.510Z,98271.91
2022-12-03T11:50:33.640Z,98275.31
2022-12-03T11:53:15.936Z,98264.16
2022-12-03T11:55:48.383Z,98260.25
2022-12-03T11:58:30.289Z,98254.47
2022-12-03T12:00:58.666Z,98254.78
2022-12-03T12:03:26.967Z,98255.59
2022-12-03T12:06:08.251Z,98252.84
2022-12-03T12:08:36.615Z,98251.59
2022-12-03T12:11:04.052Z,98250.81
2022-12-03T12:13:30.459Z,98246.88
2022-12-03T12:15:58.685Z,98250.94
2022-12-03T12:18:41.550Z,98248.19
2022-12-03T12:21:43.429Z,98245.78
2022-12-03T12:24:32.951Z,98233.13
2022-12-03T12:27:02.131Z,98229.34
2022-12-03T12:29:28.749Z,98232.72
2022-12-03T12:32:15.205Z,98236.06
2022-12-03T12:34:47.793Z,98222.97
2022-12-03T12:37:20.218Z,98226.53
2022-12-03T12:39:46.852Z,98221.63
2022-12-03T12:42:31.696Z,98219.78
2022-12-03T12:45:01.068Z,98216.47
2022-12-03T12:47:29.824Z,98211.88
2022-12-03T12:49:56.998Z,98212.28
2022-12-03T12:52:23.921Z,98205.47
2022-12-03T12:54:50.788Z,98208.84
2022-12-03T12:57:21.875Z,98206.34
2022-12-03T12:59:48.894Z,98198.59
2022-12-03T13:02:27.239Z,98196.59
2022-12-03T13:04:53.889Z,98201.34
2022-12-03T13:07:20.514Z,98198.94
2022-12-03T13:09:48.950Z,98196.38
2022-12-03T13:12:22.285Z,98197.47
2022-12-03T13:14:49.210Z,98190.38
2022-12-03T13:17:19.627Z,98191.06
2022-12-03T13:19:49.406Z,98184.59
2022-12-03T13:22:20.377Z,98181.91
2022-12-03T13:24:47.719Z,98181.78
2022-12-03T13:27:17.319Z,98182.03
2022-12-03T13:29:56.787Z,98184.81
2022-12-03T13:32:30.831Z,98189.31
2022-12-03T13:35:12.111Z,98184.34
2022-12-03T13:37:38.764Z,98186.75
2022-12-03T13:40:24.794Z,98192.34
2022-12-03T13:42:52.540Z,98196.38
2022-12-03T13:45:19.404Z,98189.88
2022-12-03T13:47:53.549Z,98180.88
2022-12-03T13:50:40.988Z,98187.97
2022-12-03T13:53:19.397Z,98186.53
2022-12-03T13:55:48.265Z,98185.66
2022-12-03T13:58:14.871Z,98189.84
2022-12-03T14:00:41.721Z,98191.28
2022-12-03T14:03:08.738Z,98186.06
2022-12-03T14:05:35.364Z,98189.44
2022-12-03T14:08:02.474Z,98187.53
2022-12-03T14:10:29.480Z,98187.25
2022-12-03T14:12:56.658Z,98182.19
2022-12-03T14:15:23.440Z,98180.34
2022-12-03T14:17:50.011Z,98175.50
2022-12-03T14:20:17.282Z,98177.88
2022-12-03T14:22:43.808Z,98177.53
2022-12-03T14:25:10.817Z,98184.59
2022-12-03T14:27:37.431Z,98183.13
2022-12-03T14:30:04.759Z,98183.94
2022-12-03T14:32:31.272Z,98181.00
2022-12-03T14:34:57.838Z,98180.50
2022-12-03T14:37:24.471Z,98183.78
2022-12-03T14:39:51.050Z,98183.56
2022-12-03T14:42:18.242Z,98188.22
2022-12-03T14:44:46.675Z,98196.28
2022-12-03T14:47:13.892Z,98192.03
2022-12-03T14:49:40.816Z,98204.53
2022-12-03T14:52:12.131Z,98204.66
2022-12-03T14:54:41.984Z,98206.16
2022-12-03T14:57:08.872Z,98208.97
2022-12-03T14:59:35.511Z,98208.91
2022-12-03T15:02:02.230Z,98213.03
2022-12-03T15:04:28.893Z,98208.69
2022-12-03T15:06:55.477Z,98208.91
2022-12-03T15:09:22.308Z,98206.88
2022-12-03T15:11:48.857Z,98209.84
2022-12-03T15:14:15.484Z,98205.81
2022-12-03T15:16:42.113Z,98198.38
2022-12-03T15:19:09.082Z,98195.66
2022-12-03T15:21:35.847Z,98200.72
2022-12-03T15:24:03.157Z,98196.91
2022-12-03T15:26:30.282Z,98191.09
2022-12-03T15:28:57.034Z,98201.38
2022-12-03T15:31:23.736Z,98195.84
2022-12-03T15:33:50.704Z,98191.63
2022-12-03T15:36:17.684Z,98192.91
2022-12-03T15:38:44.294Z,98194.38
2022-12-03T15:41:32.822Z,98192.91
2022-12-03T15:44:03.908Z,98195.00
2022-12-03T15:46:31.504Z,98195.84
2022-12-03T15:48:58.372Z,98202.44
2022-12-03T15:51:25.342Z,98201.88
2022-12-03T15:53:51.955Z,98204.25
2022-12-03T15:56:18.501Z,98199.16
2022-12-03T15:58:45.143Z,98195.56
2022-12-03T16:01:13.630Z,98195.97
2022-12-03T16:03:41.254Z,98199.66
2022-12-03T16:06:08.754Z,98199.78
2022-12-03T16:08:35.264Z,98199.03
2022-12-03T16:11:01.729Z,98195.13
2022-12-03T16:13:28.379Z,98191.41
2022-12-03T16:15:55.042Z,98187.59
2022-12-03T16:18:21.663Z,98190.47
2022-12-03T16:20:48.263Z,98190.88
2022-12-03T16:23:14.877Z,98180.69
2022-12-03T16:25:41.584Z,98193.53
2022-12-03T16:28:08.208Z,98192.69
2022-12-03T16:30:35.746Z,98196.38
2022-12-03T16:33:02.398Z,98188.03
2022-12-03T16:35:28.963Z,98185.38
2022-12-03T16:37:55.633Z,98187.94
2022-12-03T16:40:22.646Z,98187.09
2022-12-03T16:42:49.210Z,98184.84
2022-12-03T16:45:21.766Z,98185.47
2022-12-03T16:47:49.387Z,98193.31
2022-12-03T16:50:21.911Z,98184.63
2022-12-03T16:52:54.155Z,98195.47
2022-12-03T16:55:20.778Z,98199.88
2022-12-03T16:57:47.396Z,98197.56
2022-12-03T17:00:14.582Z,98193.75
2022-12-03T17:02:41.266Z,98192.38
2022-12-03T17:05:08.167Z,98189.28
2022-12-03T17:07:34.854Z,98185.59
2022-12-03T17:10:01.464Z,98176.59
2022-12-03T17:12:42.214Z,98179.00
2022-12-03T17:15:14.670Z,98173.63
2022-12-03T17:17:41.200Z,98169.50
2022-12-03T17:20:08.695Z,98167.13
2022-12-03T17:22:35.412Z,98156.78
2022-12-03T17:25:02.053Z,98155.59
2022-12-03T17:27:29.479Z,98161.75
2022-12-03T17:29:56.313Z,98155.69
2022-12-03T17:32:22.975Z,98154.66
2022-12-03T17:34:49.524Z,98153.06
2022-12-03T17:37:16.076Z,98146.94
2022-12-03T17:39:42.721Z,98153.19
2022-12-03T17:42:09.416Z,98149.69
2022-12-03T17:44:35.977Z,98147.66
2022-12-03T17:47:02.558Z,98154.97
2022-12-03T17:49:31.698Z,98155.81
2022-12-03T17:51:58.421Z,98156.03
2022-12-03T17:54:37.989Z,98157.59
2022-12-03T17:57:11.566Z,98160.38
2022-12-03T17:59:38.161Z,98160.06
2022-12-03T18:02:04.824Z,98151.38
2022-12-03T18:04:31.455Z,98155.53
2022-12-03T18:07:02.207Z,98157.56
2022-12-03T18:09:29.203Z,98149.56
2022-12-03T18:11:55.943Z,98150.72
2022-12-03T18:14:22.467Z,98148.97
2022-12-03T18:16:49.032Z,98139.81
2022-12-03T18:19:15.713Z,98141.41
2022-12-03T18:21:42.844Z,98146.44
2022-12-03T18:24:09.617Z,98149.56
2022-12-03T18:26:36.420Z,98146.16
2022-12-03T18:29:03.371Z,98144.97
2022-12-03T18:31:30.241Z,98141.38
2022-12-03T18:33:56.965Z,98135.66
2022-12-03T18:36:25.572Z,98140.13
2022-12-03T18:38:55.178Z,98144.59
2022-12-03T18:41:25.053Z,98136.50
2022-12-03T18:43:51.657Z,98138.09
2022-12-03T18:46:45.028Z,98133.56
2022-12-03T18:49:07.241Z,98132.50
2022-12-03T18:51:33.993Z,98142.13
2022-12-03T18:54:00.599Z,98144.00
2022-12-03T18:56:27.285Z,98143.13
2022-12-03T18:58:53.933Z,98134.09
2022-12-03T19:01:22.466Z,98128.94
2022-12-03T19:03:49.912Z,98131.03
2022-12-03T19:06:20.876Z,98131.78
2022-12-03T19:08:54.069Z,98134.06
2022-12-03T19:11:21.749Z,98129.66
2022-12-03T19:13:48.677Z,98129.81
2022-12-03T19:16:17.026Z,98132.34
2022-12-03T19:18:44.370Z,98127.69
2022-12-03T19:21:13.757Z,98131.63
2022-12-03T19:23:40.690Z,98123.69
2022-12-03T19:26:08.681Z,98132.69
2022-12-03T19:28:35.877Z,98131.34
2022-12-03T19:31:05.470Z,98127.19
2022-12-03T19:33:32.977Z,98126.16
2022-12-03T19:36:00.402Z,98125.53
2022-12-03T19:38:28.493Z,98124.34
2022-12-03T19:41:05.368Z,98127.22
2022-12-03T19:43:32.901Z,98120.25
2022-12-03T19:46:12.497Z,98123.00
2022-12-03T19:48:40.428Z,98113.63
2022-12-03T19:51:33.049Z,98118.97
2022-12-03T19:53:56.025Z,98108.91
2022-12-03T19:56:23.697Z,98115.72
2022-12-03T19:58:54.191Z,98124.25
2022-12-03T20:01:24.321Z,98128.25
2022-12-03T20:03:53.185Z,98125.09
2022-12-03T20:06:23.212Z,98118.53
2022-12-03T20:08:50.468Z,98124.91
2022-12-03T20:11:21.831Z,98120.88
2022-12-03T20:13:53.710Z,98120.41
2022-12-03T20:16:21.207Z,98133.16
2022-12-03T20:18:49.331Z,98134.72
2022-12-03T20:21:17.777Z,98125.41
2022-12-03T20:23:46.778Z,98124.63
2022-12-03T20:26:18.595Z,98118.19
2022-12-03T20:28:46.314Z,98117.88
2022-12-03T20:31:15.885Z,98121.66
2022-12-03T20:33:48.075Z,98119.59
2022-12-03T20:36:16.799Z,98115.31
2022-12-03T20:38:46.250Z,98113.69
2022-12-03T20:41:20.276Z,98112.16
2022-12-03T20:43:47.599Z,98110.50
2022-12-03T20:46:26.069Z,98102.81
2022-12-03T20:48:56.561Z,98106.03
2022-12-03T20:51:26.853Z,98107.63
2022-12-03T20:53:54.087Z,98101.41
2022-12-03T20:56:24.180Z,98098.00
2022-12-03T20:58:51.113Z,98088.47
2022-12-03T21:01:26.321Z,98090.13
2022-12-03T21:03:54.904Z,98096.91
2022-12-03T21:06:22.818Z,98100.97
2022-12-03T21:08:49.406Z,98091.66
2022-12-03T21:11:18.405Z,98091.44
2022-12-03T21:13:45.515Z,98089.31
2022-12-03T21:16:14.507Z,98081.69
2022-12-03T21:18:42.615Z,98083.06
2022-12-03T21:21:11.660Z,98087.50
2022-12-03T21:23:38.377Z,98084.44
2022-12-03T21:26:07.183Z,98091.22
2022-12-03T21:28:33.904Z,98083.28
2022-12-03T21:31:06.019Z,98094.09
2022-12-03T21:33:33.189Z,98087.81
2022-12-03T21:36:00.378Z,98081.03
2022-12-03T21:38:28.773Z,98080.50
2022-12-03T21:40:56.085Z,98075.97
2022-12-03T21:43:22.855Z,98080.84
2022-12-03T21:45:49.986Z,98076.59
2022-12-03T21:48:17.190Z,98071.22
2022-12-03T21:50:44.095Z,98072.16
2022-12-03T21:53:10.675Z,98073.75
2022-12-03T21:55:41.044Z,98084.44
2022-12-03T21:58:08.915Z,98081.56
2022-12-03T22:00:35.935Z,98078.94
2022-12-03T22:03:02.731Z,98066.84
2022-12-03T22:05:29.366Z,98062.72
2022-12-03T22:07:55.955Z,98066.75
2022-12-03T22:10:22.592Z,98064.19
2022-12-03T22:12:49.096Z,98070.44
2022-12-03T22:15:19.133Z,98060.94
2022-12-03T22:17:47.624Z,98063.59
2022-12-03T22:20:14.758Z,98058.94
2022-12-03T22:22:41.277Z,98076.19
2022-12-03T22:25:08.261Z,98061.38
2022-12-03T22:27:34.858Z,98065.78
2022-12-03T22:30:01.708Z,98062.38
2022-12-03T22:32:28.601Z,98056.38
2022-12-03T22:34:55.231Z,98053.63
2022-12-03T22:37:21.791Z,98048.66
2022-12-03T22:39:48.415Z,98053.84
2022-12-03T22:42:15.148Z,98053.00
2022-12-03T22:44:42.177Z,98048.47
2022-12-03T22:47:08.782Z,98053.94
2022-12-03T22:49:35.419Z,98050.16
2022-12-03T22:52:01.965Z,98052.69
2022-12-03T22:54:28.548Z,98055.13
2022-12-03T22:56:55.647Z,98047.78
2022-12-03T22:59:22.269Z,98043.00
2022-12-03T23:01:48.868Z,98032.97
2022-12-03T23:04:15.518Z,98043.53
2022-12-03T23:06:43.485Z,98028.41
2022-12-03T23:09:10.122Z,98021.50
2022-12-03T23:11:37.035Z,98015.16
2022-12-03T23:14:03.671Z,98023.44
2022-12-03T23:16:31.820Z,98018.47
2022-12-03T23:18:59.898Z,98017.81
2022-12-03T23:21:30.252Z,98027.25
2022-12-03T23:23:58.791Z,98020.75
2022-12-03T23:26:26.471Z,98020.22
2022-12-03T23:28:53.446Z,98013.94
2022-12-03T23:31:26.208Z,98020.28
2022-12-03T23:33:53.695Z,98012.03
2022-12-03T23:36:21.308Z,98024.31
2022-12-03T23:38:47.923Z,98024.50
2022-12-03T23:41:16.882Z,98013.16
2022-12-03T23:43:43.531Z,98012.59
2022-12-03T23:46:12.658Z,98002.81
2022-12-03T23:48:39.594Z,98007.84
2022-12-03T23:51:11.034Z,98016.47
2022-12-03T23:53:38.419Z,98019.84
2022-12-03T23:56:06.831Z,98010.81
2022-12-03T23:58:33.942Z,98021.63
